WZZ9206 EGGW-EPLB
Flight info
| Callsign | WZZ9206 |
|---|---|
| Flight time | N/A |
| Altitude | 37000 |
| Route | MATCH Q295 BRAIN M197 REDFA L620 TACHA DCT ZUCKA DCT DESAR DCT GOBAX DCT LASIS L986 SUDOL DCT KOTEK T709 LULIN T375 GAVDU |
| Aircraft | A320/M-SDE3FGHIRWY/LB1 |
Departure
| Time | N/A |
|---|---|
| Airport | London Luton Airport (EGGW) |
Arrival
| Time | 2026-04-24 20:36 |
|---|---|
| Airport | Lublin Airport (EPLB) |
| Time | Latitude | Longitude | Altitude | Speed | Heading |
|---|---|---|---|---|---|
| 2026-04-24 18:56 | 52.25114 | 3.35582 | 36282 ft | 472 kts | 95° |
| 2026-04-24 18:57 | 52.24641 | 3.46253 | 36286 ft | 472 kts | 95° |
| 2026-04-24 18:57 | 52.24161 | 3.56972 | 36279 ft | 473 kts | 95° |
| 2026-04-24 18:58 | 52.23668 | 3.67691 | 36275 ft | 474 kts | 95° |
| 2026-04-24 18:58 | 52.23161 | 3.78372 | 36274 ft | 474 kts | 95° |
| 2026-04-24 18:59 | 52.22589 | 3.90256 | 36461 ft | 474 kts | 95° |
| 2026-04-24 18:59 | 52.22332 | 3.95587 | 36754 ft | 473 kts | 95° |
| 2026-04-24 18:59 | 52.22067 | 4.00975 | 37028 ft | 472 kts | 95° |
| 2026-04-24 18:59 | 52.21800 | 4.06306 | 37240 ft | 472 kts | 95° |
| 2026-04-24 19:00 | 52.21527 | 4.11678 | 37276 ft | 476 kts | 95° |
| 2026-04-24 19:00 | 52.20968 | 4.22467 | 37271 ft | 483 kts | 95° |
| 2026-04-24 19:01 | 52.20410 | 4.33407 | 37270 ft | 484 kts | 95° |
| 2026-04-24 19:01 | 52.19848 | 4.44318 | 37271 ft | 484 kts | 96° |
| 2026-04-24 19:02 | 52.19360 | 4.53462 | 37272 ft | 484 kts | 96° |
| 2026-04-24 19:02 | 52.18757 | 4.64401 | 37273 ft | 484 kts | 96° |
| 2026-04-24 19:03 | 52.18142 | 4.75331 | 37281 ft | 485 kts | 96° |
| 2026-04-24 19:03 | 52.17522 | 4.86299 | 37293 ft | 485 kts | 96° |
| 2026-04-24 19:04 | 52.16900 | 4.97179 | 37291 ft | 485 kts | 96° |
| 2026-04-24 19:04 | 52.16266 | 5.08141 | 37286 ft | 485 kts | 96° |
| 2026-04-24 19:05 | 52.15618 | 5.19063 | 37287 ft | 485 kts | 96° |
| 2026-04-24 19:05 | 52.14955 | 5.30000 | 37285 ft | 485 kts | 96° |
| 2026-04-24 19:06 | 52.14291 | 5.40908 | 37279 ft | 485 kts | 96° |
| 2026-04-24 19:06 | 52.13622 | 5.51775 | 37277 ft | 484 kts | 96° |
| 2026-04-24 19:07 | 52.12938 | 5.62678 | 37274 ft | 484 kts | 97° |
| 2026-04-24 19:07 | 52.12243 | 5.73601 | 37272 ft | 484 kts | 97° |
| 2026-04-24 19:08 | 52.11528 | 5.84498 | 37272 ft | 484 kts | 97° |
| 2026-04-24 19:08 | 52.10810 | 5.95387 | 37272 ft | 484 kts | 97° |
| 2026-04-24 19:09 | 52.10088 | 6.06290 | 37270 ft | 484 kts | 97° |
| 2026-04-24 19:09 | 52.09355 | 6.17165 | 37264 ft | 484 kts | 97° |
| 2026-04-24 19:10 | 52.08610 | 6.28044 | 37260 ft | 484 kts | 97° |
| 2026-04-24 19:10 | 52.07848 | 6.38921 | 37255 ft | 483 kts | 97° |
| 2026-04-24 19:11 | 52.07082 | 6.49711 | 37251 ft | 483 kts | 97° |
| 2026-04-24 19:11 | 52.06306 | 6.60632 | 37250 ft | 483 kts | 97° |
| 2026-04-24 19:12 | 52.05527 | 6.71447 | 37247 ft | 483 kts | 97° |
| 2026-04-24 19:12 | 52.04736 | 6.82283 | 37242 ft | 483 kts | 97° |
| 2026-04-24 19:13 | 52.04066 | 6.91312 | 37242 ft | 483 kts | 97° |
| 2026-04-24 19:13 | 52.03113 | 7.03977 | 37236 ft | 483 kts | 98° |
| 2026-04-24 19:14 | 52.02288 | 7.14779 | 37232 ft | 483 kts | 98° |
| 2026-04-24 19:14 | 52.01472 | 7.25368 | 37225 ft | 483 kts | 98° |
| 2026-04-24 19:15 | 52.00611 | 7.36319 | 37220 ft | 483 kts | 98° |
| 2026-04-24 19:15 | 51.99752 | 7.47136 | 37215 ft | 482 kts | 98° |
| 2026-04-24 19:16 | 51.98462 | 7.63320 | 37208 ft | 482 kts | 98° |
| 2026-04-24 19:16 | 51.97590 | 7.74082 | 37209 ft | 482 kts | 98° |
| 2026-04-24 19:17 | 51.96703 | 7.84862 | 37210 ft | 482 kts | 98° |
| 2026-04-24 19:17 | 51.95801 | 7.95646 | 37210 ft | 482 kts | 98° |
| 2026-04-24 19:18 | 51.94895 | 8.06369 | 37207 ft | 482 kts | 98° |
| 2026-04-24 19:18 | 51.93992 | 8.17062 | 37200 ft | 482 kts | 98° |
| 2026-04-24 19:19 | 51.93071 | 8.27853 | 37198 ft | 482 kts | 98° |
| 2026-04-24 19:19 | 51.92133 | 8.38608 | 37200 ft | 482 kts | 98° |
| 2026-04-24 19:20 | 51.91174 | 8.49384 | 37200 ft | 482 kts | 98° |
| 2026-04-24 19:20 | 51.90225 | 8.60031 | 37200 ft | 482 kts | 98° |
| 2026-04-24 19:21 | 51.89265 | 8.70816 | 37199 ft | 482 kts | 98° |
| 2026-04-24 19:21 | 51.88292 | 8.81596 | 37194 ft | 482 kts | 99° |
| 2026-04-24 19:22 | 51.87312 | 8.92248 | 37188 ft | 482 kts | 99° |
| 2026-04-24 19:22 | 51.86325 | 9.02856 | 37185 ft | 482 kts | 99° |
| 2026-04-24 19:23 | 51.85325 | 9.13632 | 37183 ft | 483 kts | 99° |
| 2026-04-24 19:23 | 51.84318 | 9.24285 | 37179 ft | 483 kts | 99° |
| 2026-04-24 19:24 | 51.83285 | 9.35042 | 37179 ft | 483 kts | 99° |
| 2026-04-24 19:24 | 51.82246 | 9.45789 | 37178 ft | 483 kts | 99° |
| 2026-04-24 19:25 | 51.81193 | 9.56540 | 37179 ft | 484 kts | 99° |
| 2026-04-24 19:25 | 51.80137 | 9.67257 | 37173 ft | 484 kts | 99° |
| 2026-04-24 19:26 | 51.79071 | 9.78004 | 37174 ft | 485 kts | 99° |
| 2026-04-24 19:26 | 51.77996 | 9.88740 | 37173 ft | 485 kts | 99° |
| 2026-04-24 19:27 | 51.76910 | 9.99489 | 37170 ft | 485 kts | 99° |
| 2026-04-24 19:27 | 51.75817 | 10.10190 | 37166 ft | 486 kts | 99° |
| 2026-04-24 19:28 | 51.74705 | 10.20936 | 37166 ft | 486 kts | 99° |
| 2026-04-24 19:28 | 51.73578 | 10.31735 | 37164 ft | 487 kts | 99° |
| 2026-04-24 19:29 | 51.71886 | 10.47838 | 37162 ft | 487 kts | 99° |
| 2026-04-24 19:30 | 51.70741 | 10.58606 | 37160 ft | 488 kts | 100° |
| 2026-04-24 19:30 | 51.69575 | 10.69374 | 37158 ft | 488 kts | 100° |
| 2026-04-24 19:31 | 51.68396 | 10.80184 | 37159 ft | 488 kts | 100° |
| 2026-04-24 19:31 | 51.67337 | 10.91011 | 37159 ft | 488 kts | 93° |
| 2026-04-24 19:32 | 51.67064 | 11.01885 | 37154 ft | 488 kts | 91° |
| 2026-04-24 19:32 | 51.66786 | 11.12823 | 37153 ft | 489 kts | 91° |
| 2026-04-24 19:33 | 51.66482 | 11.23821 | 37154 ft | 489 kts | 91° |
| 2026-04-24 19:33 | 51.66175 | 11.34763 | 37156 ft | 490 kts | 91° |
| 2026-04-24 19:34 | 51.65867 | 11.45662 | 37158 ft | 490 kts | 91° |
| 2026-04-24 19:34 | 51.65546 | 11.56636 | 37158 ft | 490 kts | 91° |
| 2026-04-24 19:35 | 51.65210 | 11.67609 | 37157 ft | 490 kts | 92° |
| 2026-04-24 19:35 | 51.64852 | 11.78593 | 37158 ft | 491 kts | 92° |
| 2026-04-24 19:36 | 51.64492 | 11.89572 | 37155 ft | 491 kts | 92° |
| 2026-04-24 19:36 | 51.64125 | 12.00568 | 37155 ft | 491 kts | 92° |
| 2026-04-24 19:37 | 51.63228 | 12.11266 | 37192 ft | 465 kts | 99° |
| 2026-04-24 19:37 | 51.62669 | 12.16297 | 37036 ft | 461 kts | 99° |
| 2026-04-24 19:37 | 51.62103 | 12.21460 | 37151 ft | 464 kts | 99° |
| 2026-04-24 19:38 | 51.60974 | 12.31755 | 37137 ft | 476 kts | 99° |
| 2026-04-24 19:38 | 51.59803 | 12.42251 | 37138 ft | 487 kts | 99° |
| 2026-04-24 19:39 | 51.58571 | 12.53113 | 37134 ft | 491 kts | 99° |
| 2026-04-24 19:39 | 51.57335 | 12.63945 | 37128 ft | 492 kts | 99° |
| 2026-04-24 19:40 | 51.56084 | 12.74794 | 37123 ft | 493 kts | 99° |
| 2026-04-24 19:40 | 51.55224 | 12.85725 | 37122 ft | 492 kts | 94° |
| 2026-04-24 19:41 | 51.54574 | 12.96605 | 37117 ft | 492 kts | 94° |
| 2026-04-24 19:41 | 51.53908 | 13.07572 | 37126 ft | 493 kts | 94° |
| 2026-04-24 19:42 | 51.53229 | 13.18517 | 37126 ft | 493 kts | 94° |
| 2026-04-24 19:42 | 51.52530 | 13.29486 | 37127 ft | 494 kts | 94° |
| 2026-04-24 19:43 | 51.51820 | 13.40415 | 37126 ft | 494 kts | 94° |
| 2026-04-24 19:43 | 51.51101 | 13.51406 | 37121 ft | 494 kts | 94° |
| 2026-04-24 19:44 | 51.50383 | 13.62377 | 37123 ft | 494 kts | 94° |
| 2026-04-24 19:44 | 51.49778 | 13.71511 | 37127 ft | 494 kts | 94° |
| 2026-04-24 19:45 | 51.49034 | 13.82481 | 37126 ft | 495 kts | 94° |
| 2026-04-24 19:45 | 51.48281 | 13.93478 | 37120 ft | 495 kts | 94° |
| 2026-04-24 19:46 | 51.47517 | 14.04446 | 37125 ft | 495 kts | 95° |
| 2026-04-24 19:46 | 51.46732 | 14.15434 | 37123 ft | 495 kts | 95° |
| 2026-04-24 19:47 | 51.45950 | 14.26320 | 37119 ft | 495 kts | 95° |
| 2026-04-24 19:47 | 51.45155 | 14.37301 | 37116 ft | 495 kts | 95° |
| 2026-04-24 19:48 | 51.44355 | 14.48229 | 37128 ft | 495 kts | 95° |
| 2026-04-24 19:48 | 51.43123 | 14.64704 | 37124 ft | 495 kts | 95° |
| 2026-04-24 19:49 | 51.41457 | 14.86601 | 37126 ft | 495 kts | 94° |
| 2026-04-24 19:50 | 51.40388 | 15.08408 | 37120 ft | 493 kts | 91° |
| 2026-04-24 19:51 | 51.39625 | 15.24900 | 37121 ft | 494 kts | 92° |
| 2026-04-24 19:52 | 51.38739 | 15.41274 | 37120 ft | 494 kts | 92° |
| 2026-04-24 19:52 | 51.38146 | 15.52215 | 37119 ft | 493 kts | 92° |
| 2026-04-24 19:53 | 51.37551 | 15.63198 | 37118 ft | 493 kts | 92° |
| 2026-04-24 19:54 | 51.36647 | 15.79601 | 37117 ft | 493 kts | 92° |
| 2026-04-24 19:54 | 51.36025 | 15.90526 | 37118 ft | 493 kts | 92° |
| 2026-04-24 19:55 | 51.35502 | 15.99609 | 37115 ft | 493 kts | 92° |
| 2026-04-24 19:55 | 51.34754 | 16.12304 | 37114 ft | 492 kts | 92° |
| 2026-04-24 19:56 | 51.34102 | 16.23196 | 37114 ft | 492 kts | 92° |
| 2026-04-24 19:56 | 51.33451 | 16.34106 | 37113 ft | 492 kts | 92° |
| 2026-04-24 19:57 | 51.32787 | 16.45023 | 37115 ft | 492 kts | 92° |
| 2026-04-24 19:57 | 51.32105 | 16.55920 | 37114 ft | 492 kts | 92° |
| 2026-04-24 19:58 | 51.31417 | 16.66773 | 37111 ft | 492 kts | 92° |
| 2026-04-24 19:58 | 51.30720 | 16.77664 | 37111 ft | 491 kts | 92° |
| 2026-04-24 19:59 | 51.30018 | 16.88468 | 37110 ft | 491 kts | 92° |
| 2026-04-24 19:59 | 51.29296 | 16.99329 | 37114 ft | 491 kts | 92° |
| 2026-04-24 20:00 | 51.28567 | 17.10197 | 37104 ft | 491 kts | 92° |
| 2026-04-24 20:00 | 51.27828 | 17.21020 | 37108 ft | 491 kts | 92° |
| 2026-04-24 20:01 | 51.27074 | 17.31877 | 37102 ft | 491 kts | 93° |
| 2026-04-24 20:01 | 51.26312 | 17.42725 | 37103 ft | 491 kts | 93° |
| 2026-04-24 20:02 | 51.25685 | 17.51648 | 37101 ft | 491 kts | 92° |
| 2026-04-24 20:02 | 51.24779 | 17.64344 | 37090 ft | 491 kts | 93° |
| 2026-04-24 20:03 | 51.23991 | 17.75097 | 37093 ft | 491 kts | 93° |
| 2026-04-24 20:03 | 51.23193 | 17.85918 | 37098 ft | 491 kts | 93° |
| 2026-04-24 20:04 | 51.22390 | 17.96752 | 37092 ft | 490 kts | 93° |
| 2026-04-24 20:04 | 51.21577 | 18.07566 | 37092 ft | 490 kts | 93° |
| 2026-04-24 20:05 | 51.20754 | 18.18285 | 37085 ft | 490 kts | 93° |
| 2026-04-24 20:05 | 51.19917 | 18.29085 | 37082 ft | 490 kts | 93° |
| 2026-04-24 20:06 | 51.19072 | 18.39825 | 37081 ft | 489 kts | 93° |
| 2026-04-24 20:06 | 51.18215 | 18.50595 | 37080 ft | 489 kts | 93° |
| 2026-04-24 20:07 | 51.17498 | 18.59557 | 37076 ft | 489 kts | 93° |
| 2026-04-24 20:07 | 51.16479 | 18.72132 | 37065 ft | 489 kts | 93° |
| 2026-04-24 20:08 | 51.15605 | 18.82810 | 37062 ft | 489 kts | 93° |
| 2026-04-24 20:08 | 51.14711 | 18.93541 | 37066 ft | 488 kts | 93° |
| 2026-04-24 20:09 | 51.13809 | 19.04230 | 37059 ft | 488 kts | 93° |
| 2026-04-24 20:09 | 51.12900 | 19.14906 | 37056 ft | 488 kts | 93° |
| 2026-04-24 20:10 | 51.11969 | 19.25666 | 37058 ft | 488 kts | 94° |
| 2026-04-24 20:10 | 51.11042 | 19.36354 | 37056 ft | 488 kts | 93° |
| 2026-04-24 20:11 | 51.10110 | 19.47032 | 37047 ft | 487 kts | 94° |
| 2026-04-24 20:11 | 51.09162 | 19.57649 | 37043 ft | 487 kts | 94° |
| 2026-04-24 20:12 | 51.08200 | 19.68323 | 37039 ft | 487 kts | 94° |
| 2026-04-24 20:12 | 51.07231 | 19.78962 | 37041 ft | 487 kts | 94° |
| 2026-04-24 20:13 | 51.06263 | 19.89616 | 37038 ft | 487 kts | 94° |
| 2026-04-24 20:13 | 51.05281 | 20.00275 | 37034 ft | 486 kts | 94° |
| 2026-04-24 20:14 | 51.04285 | 20.10921 | 37032 ft | 486 kts | 94° |
| 2026-04-24 20:14 | 51.03282 | 20.21553 | 37032 ft | 486 kts | 94° |
| 2026-04-24 20:15 | 51.02264 | 20.32169 | 37030 ft | 486 kts | 94° |
| 2026-04-24 20:15 | 51.01234 | 20.42808 | 37027 ft | 486 kts | 94° |
| 2026-04-24 20:16 | 51.00211 | 20.53338 | 37024 ft | 486 kts | 94° |
| 2026-04-24 20:16 | 50.99172 | 20.63933 | 37032 ft | 484 kts | 94° |
| 2026-04-24 20:17 | 50.98122 | 20.74490 | 37029 ft | 482 kts | 94° |
| 2026-04-24 20:17 | 50.96543 | 20.90198 | 37027 ft | 479 kts | 94° |
| 2026-04-24 20:18 | 50.95480 | 21.00647 | 35900 ft | 486 kts | 94° |
| 2026-04-24 20:18 | 50.94944 | 21.05932 | 34405 ft | 494 kts | 94° |
| 2026-04-24 20:18 | 50.94415 | 21.11108 | 32856 ft | 500 kts | 94° |
| 2026-04-24 20:19 | 50.93842 | 21.16680 | 31178 ft | 504 kts | 95° |
| 2026-04-24 20:19 | 50.93272 | 21.22185 | 29427 ft | 506 kts | 95° |
| 2026-04-24 20:19 | 50.92697 | 21.27683 | 27811 ft | 504 kts | 95° |
| 2026-04-24 20:19 | 50.92120 | 21.33148 | 26458 ft | 498 kts | 96° |
| 2026-04-24 20:20 | 50.91550 | 21.38533 | 25205 ft | 490 kts | 96° |
| 2026-04-24 20:20 | 50.90989 | 21.43818 | 24029 ft | 483 kts | 96° |
| 2026-04-24 20:20 | 50.90431 | 21.49084 | 23207 ft | 481 kts | 96° |
| 2026-04-24 20:20 | 50.89880 | 21.54220 | 22470 ft | 461 kts | 96° |
| 2026-04-24 20:21 | 50.89357 | 21.59047 | 21885 ft | 442 kts | 97° |
| 2026-04-24 20:21 | 50.88841 | 21.63817 | 21294 ft | 427 kts | 97° |
| 2026-04-24 20:21 | 50.88345 | 21.68387 | 20750 ft | 413 kts | 97° |
| 2026-04-24 20:21 | 50.87875 | 21.72739 | 20228 ft | 400 kts | 97° |
| 2026-04-24 20:22 | 50.87410 | 21.77071 | 19728 ft | 399 kts | 97° |
| 2026-04-24 20:22 | 50.86941 | 21.81391 | 19222 ft | 396 kts | 97° |
| 2026-04-24 20:22 | 50.86473 | 21.85678 | 18721 ft | 394 kts | 97° |
| 2026-04-24 20:22 | 50.86001 | 21.89970 | 18169 ft | 394 kts | 98° |
| 2026-04-24 20:23 | 50.85529 | 21.94230 | 17599 ft | 392 kts | 98° |
| 2026-04-24 20:23 | 50.85061 | 21.98460 | 17059 ft | 390 kts | 97° |
| 2026-04-24 20:23 | 50.84836 | 22.02705 | 16503 ft | 386 kts | 87° |
| 2026-04-24 20:23 | 50.85107 | 22.06931 | 15967 ft | 381 kts | 76° |
| 2026-04-24 20:24 | 50.85545 | 22.09592 | 15615 ft | 378 kts | 69° |
| 2026-04-24 20:24 | 50.87014 | 22.14575 | 14900 ft | 372 kts | 56° |
| 2026-04-24 20:24 | 50.88338 | 22.18037 | 14369 ft | 370 kts | 57° |
| 2026-04-24 20:24 | 50.89659 | 22.21528 | 13842 ft | 369 kts | 57° |
| 2026-04-24 20:25 | 50.90970 | 22.25007 | 13237 ft | 368 kts | 57° |
| 2026-04-24 20:25 | 50.92083 | 22.28607 | 13030 ft | 356 kts | 68° |
| 2026-04-24 20:25 | 50.92780 | 22.32227 | 12888 ft | 332 kts | 72° |
| 2026-04-24 20:25 | 50.93400 | 22.35657 | 12519 ft | 318 kts | 72° |
| 2026-04-24 20:26 | 50.94002 | 22.38962 | 12227 ft | 309 kts | 72° |
| 2026-04-24 20:26 | 50.94605 | 22.42236 | 11980 ft | 309 kts | 72° |
| 2026-04-24 20:26 | 50.95205 | 22.45496 | 11725 ft | 307 kts | 72° |
| 2026-04-24 20:26 | 50.95803 | 22.48766 | 11480 ft | 307 kts | 72° |
| 2026-04-24 20:27 | 50.96390 | 22.51997 | 11228 ft | 304 kts | 72° |
| 2026-04-24 20:27 | 50.96972 | 22.55205 | 10983 ft | 301 kts | 72° |
| 2026-04-24 20:27 | 50.97550 | 22.58388 | 10644 ft | 301 kts | 72° |
| 2026-04-24 20:27 | 50.98215 | 22.61378 | 10250 ft | 300 kts | 62° |
| 2026-04-24 20:28 | 50.99322 | 22.64113 | 9931 ft | 295 kts | 48° |
| 2026-04-24 20:28 | 51.00799 | 22.66348 | 9604 ft | 291 kts | 37° |
| 2026-04-24 20:28 | 51.02292 | 22.68328 | 9252 ft | 289 kts | 38° |
| 2026-04-24 20:28 | 51.03825 | 22.70378 | 8761 ft | 285 kts | 38° |
| 2026-04-24 20:29 | 51.04820 | 22.71714 | 8379 ft | 282 kts | 38° |
| 2026-04-24 20:29 | 51.06122 | 22.73469 | 8007 ft | 279 kts | 37° |
| 2026-04-24 20:29 | 51.07496 | 22.75321 | 7635 ft | 281 kts | 37° |
| 2026-04-24 20:29 | 51.09505 | 22.78021 | 7185 ft | 280 kts | 37° |
| 2026-04-24 20:30 | 51.10507 | 22.79370 | 6940 ft | 280 kts | 37° |
| 2026-04-24 20:30 | 51.11972 | 22.81347 | 6592 ft | 276 kts | 37° |
| 2026-04-24 20:30 | 51.13444 | 22.83334 | 6218 ft | 277 kts | 37° |
| 2026-04-24 20:30 | 51.14912 | 22.85316 | 5814 ft | 278 kts | 37° |
| 2026-04-24 20:31 | 51.16275 | 22.87159 | 5580 ft | 274 kts | 38° |
| 2026-04-24 20:31 | 51.17563 | 22.89415 | 5081 ft | 276 kts | 52° |
| 2026-04-24 20:31 | 51.18611 | 22.91975 | 4620 ft | 274 kts | 53° |
| 2026-04-24 20:31 | 51.19843 | 22.94225 | 4174 ft | 266 kts | 35° |
| 2026-04-24 20:32 | 51.21437 | 22.95619 | 3772 ft | 258 kts | 15° |
| 2026-04-24 20:32 | 51.23166 | 22.96043 | 3524 ft | 244 kts | 355° |
| 2026-04-24 20:32 | 51.24776 | 22.95653 | 3441 ft | 225 kts | 343° |
| 2026-04-24 20:32 | 51.26106 | 22.94620 | 3338 ft | 209 kts | 314° |
| 2026-04-24 20:33 | 51.26829 | 22.92668 | 3166 ft | 204 kts | 281° |
| 2026-04-24 20:33 | 51.26756 | 22.90469 | 2832 ft | 199 kts | 257° |
| 2026-04-24 20:33 | 51.26449 | 22.88362 | 2541 ft | 192 kts | 257° |
| 2026-04-24 20:33 | 51.26164 | 22.86378 | 2319 ft | 173 kts | 257° |
| 2026-04-24 20:34 | 51.25907 | 22.84589 | 2086 ft | 158 kts | 257° |
| 2026-04-24 20:34 | 51.25665 | 22.82904 | 1903 ft | 153 kts | 257° |
| 2026-04-24 20:34 | 51.25431 | 22.81265 | 1702 ft | 148 kts | 257° |
| 2026-04-24 20:34 | 51.25210 | 22.79715 | 1529 ft | 140 kts | 256° |
| 2026-04-24 20:35 | 51.24995 | 22.78207 | 1329 ft | 138 kts | 256° |
| 2026-04-24 20:35 | 51.24782 | 22.76716 | 1138 ft | 137 kts | 255° |
| 2026-04-24 20:35 | 51.24570 | 22.75230 | 953 ft | 137 kts | 255° |
| 2026-04-24 20:35 | 51.24362 | 22.73772 | 775 ft | 136 kts | 255° |
| 2026-04-24 20:36 | 51.24150 | 22.72326 | 640 ft | 123 kts | 258° |
| 2026-04-24 20:36 | 51.24004 | 22.71283 | 648 ft | 71 kts | 258° |
| 2026-04-24 20:36 | 51.23927 | 22.70734 | 644 ft | 42 kts | 256° |
| 2026-04-24 20:36 | 51.23866 | 22.70334 | 644 ft | 37 kts | 258° |
| 2026-04-24 20:37 | 51.23824 | 22.70034 | 644 ft | 22 kts | 256° |
| 2026-04-24 20:37 | 51.23792 | 22.69787 | 643 ft | 23 kts | 258° |
| 2026-04-24 20:37 | 51.23776 | 22.69660 | 644 ft | 5 kts | 207° |
| 2026-04-24 20:37 | 51.23766 | 22.69664 | 639 ft | 0 kts | 165° |
| 2026-04-24 20:38 | 51.23765 | 22.69665 | 639 ft | 1 kts | 153° |
| 2026-04-24 20:38 | 51.23784 | 22.69731 | 638 ft | 16 kts | 77° |
| 2026-04-24 20:38 | 51.23812 | 22.69933 | 642 ft | 20 kts | 77° |
| 2026-04-24 20:38 | 51.23848 | 22.70157 | 635 ft | 24 kts | 83° |
| 2026-04-24 20:39 | 51.23886 | 22.70450 | 641 ft | 28 kts | 77° |
| 2026-04-24 20:39 | 51.23929 | 22.70751 | 646 ft | 28 kts | 75° |
| 2026-04-24 20:39 | 51.23972 | 22.71043 | 647 ft | 24 kts | 77° |
| 2026-04-24 20:39 | 51.23981 | 22.71303 | 650 ft | 24 kts | 114° |
| 2026-04-24 20:40 | 51.23874 | 22.71413 | 650 ft | 0 kts | 179° |
| 2026-04-24 20:40 | 51.23832 | 22.71417 | 654 ft | 14 kts | 171° |
| 2026-04-24 20:40 | 51.23742 | 22.71447 | 653 ft | 0 kts | 165° |
| 2026-04-24 20:41 | 51.23738 | 22.71448 | 653 ft | 3 kts | 164° |
| 2026-04-24 20:41 | 51.23677 | 22.71474 | 653 ft | 7 kts | 167° |
| 2026-04-24 20:41 | 51.23652 | 22.71483 | 653 ft | 0 kts | 166° |
| 2026-04-24 20:42 | 51.23644 | 22.71487 | 653 ft | 0 kts | 166° |